sensor_id;sensor_type;location;lat;lon;timestamp;P1;durP1;ratioP1;P2;durP2;ratioP2
74551;SDS011;63025;55.472;38.432;2023-08-17T00:00:11;17.27;;;12.15;;
74551;SDS011;63025;55.472;38.432;2023-08-17T00:02:40;19.52;;;11.60;;
74551;SDS011;63025;55.472;38.432;2023-08-17T00:05:07;19.30;;;11.88;;
74551;SDS011;63025;55.472;38.432;2023-08-17T00:07:33;20.27;;;11.48;;
74551;SDS011;63025;55.472;38.432;2023-08-17T00:09:59;17.65;;;11.18;;
74551;SDS011;63025;55.472;38.432;2023-08-17T00:12:24;16.10;;;9.75;;
74551;SDS011;63025;55.472;38.432;2023-08-17T00:14:51;14.20;;;9.27;;
74551;SDS011;63025;55.472;38.432;2023-08-17T00:17:17;20.38;;;11.50;;
74551;SDS011;63025;55.472;38.432;2023-08-17T00:19:43;16.73;;;11.73;;
74551;SDS011;63025;55.472;38.432;2023-08-17T00:22:09;17.15;;;10.68;;
74551;SDS011;63025;55.472;38.432;2023-08-17T00:24:35;14.65;;;9.60;;
74551;SDS011;63025;55.472;38.432;2023-08-17T00:27:00;16.67;;;11.32;;
74551;SDS011;63025;55.472;38.432;2023-08-17T00:29:26;17.48;;;9.48;;
74551;SDS011;63025;55.472;38.432;2023-08-17T00:31:52;20.35;;;11.25;;
74551;SDS011;63025;55.472;38.432;2023-08-17T00:34:19;15.48;;;11.25;;
74551;SDS011;63025;55.472;38.432;2023-08-17T00:36:44;18.73;;;10.10;;
74551;SDS011;63025;55.472;38.432;2023-08-17T00:39:10;15.02;;;11.18;;
74551;SDS011;63025;55.472;38.432;2023-08-17T00:41:36;21.60;;;12.50;;
74551;SDS011;63025;55.472;38.432;2023-08-17T00:44:02;17.60;;;11.27;;
74551;SDS011;63025;55.472;38.432;2023-08-17T00:46:28;18.17;;;10.00;;
74551;SDS011;63025;55.472;38.432;2023-08-17T00:48:55;16.25;;;10.52;;
74551;SDS011;63025;55.472;38.432;2023-08-17T00:51:22;17.10;;;10.15;;
74551;SDS011;63025;55.472;38.432;2023-08-17T00:53:56;18.00;;;10.70;;
74551;SDS011;63025;55.472;38.432;2023-08-17T00:56:24;21.08;;;12.18;;
74551;SDS011;63025;55.472;38.432;2023-08-17T00:58:54;17.20;;;10.50;;
74551;SDS011;63025;55.472;38.432;2023-08-17T01:01:21;19.02;;;11.30;;
74551;SDS011;63025;55.472;38.432;2023-08-17T01:03:48;17.38;;;12.02;;
74551;SDS011;63025;55.472;38.432;2023-08-17T01:06:15;20.67;;;13.02;;
74551;SDS011;63025;55.472;38.432;2023-08-17T01:08:42;24.05;;;13.80;;
74551;SDS011;63025;55.472;38.432;2023-08-17T01:13:48;22.15;;;14.43;;
74551;SDS011;63025;55.472;38.432;2023-08-17T01:16:31;22.30;;;13.48;;
74551;SDS011;63025;55.472;38.432;2023-08-17T01:19:00;20.85;;;14.27;;
74551;SDS011;63025;55.472;38.432;2023-08-17T01:21:33;22.73;;;14.05;;
74551;SDS011;63025;55.472;38.432;2023-08-17T01:24:07;22.40;;;13.63;;
74551;SDS011;63025;55.472;38.432;2023-08-17T01:26:33;18.27;;;11.98;;
74551;SDS011;63025;55.472;38.432;2023-08-17T01:28:59;24.90;;;15.30;;
74551;SDS011;63025;55.472;38.432;2023-08-17T01:31:29;33.15;;;18.05;;
74551;SDS011;63025;55.472;38.432;2023-08-17T01:34:07;31.88;;;17.77;;
74551;SDS011;63025;55.472;38.432;2023-08-17T01:36:37;27.02;;;16.63;;
74551;SDS011;63025;55.472;38.432;2023-08-17T01:39:06;23.98;;;15.02;;
74551;SDS011;63025;55.472;38.432;2023-08-17T01:41:33;30.83;;;15.30;;
74551;SDS011;63025;55.472;38.432;2023-08-17T01:44:00;30.15;;;17.95;;
74551;SDS011;63025;55.472;38.432;2023-08-17T01:46:31;27.25;;;16.88;;
74551;SDS011;63025;55.472;38.432;2023-08-17T01:48:58;29.38;;;18.05;;
74551;SDS011;63025;55.472;38.432;2023-08-17T01:51:24;31.70;;;17.85;;
74551;SDS011;63025;55.472;38.432;2023-08-17T01:53:50;35.08;;;20.90;;
74551;SDS011;63025;55.472;38.432;2023-08-17T01:56:16;36.08;;;20.92;;
74551;SDS011;63025;55.472;38.432;2023-08-17T01:58:44;30.65;;;18.67;;
74551;SDS011;63025;55.472;38.432;2023-08-17T02:01:10;43.20;;;25.30;;
74551;SDS011;63025;55.472;38.432;2023-08-17T02:03:35;33.13;;;19.08;;
74551;SDS011;63025;55.472;38.432;2023-08-17T02:06:01;37.42;;;22.88;;
74551;SDS011;63025;55.472;38.432;2023-08-17T02:08:28;37.05;;;21.10;;
74551;SDS011;63025;55.472;38.432;2023-08-17T02:10:53;38.50;;;22.05;;
74551;SDS011;63025;55.472;38.432;2023-08-17T02:13:22;40.25;;;22.83;;
74551;SDS011;63025;55.472;38.432;2023-08-17T02:15:48;46.83;;;24.45;;
74551;SDS011;63025;55.472;38.432;2023-08-17T02:18:14;39.22;;;22.52;;
74551;SDS011;63025;55.472;38.432;2023-08-17T02:20:40;45.53;;;26.23;;
74551;SDS011;63025;55.472;38.432;2023-08-17T02:23:06;41.53;;;25.55;;
74551;SDS011;63025;55.472;38.432;2023-08-17T02:25:32;47.22;;;27.85;;
74551;SDS011;63025;55.472;38.432;2023-08-17T02:28:01;44.28;;;25.25;;
74551;SDS011;63025;55.472;38.432;2023-08-17T02:30:29;40.70;;;24.77;;
74551;SDS011;63025;55.472;38.432;2023-08-17T02:32:58;38.17;;;23.20;;
74551;SDS011;63025;55.472;38.432;2023-08-17T02:35:24;39.17;;;22.67;;
74551;SDS011;63025;55.472;38.432;2023-08-17T02:37:50;42.50;;;23.52;;
74551;SDS011;63025;55.472;38.432;2023-08-17T02:40:16;41.75;;;25.52;;
74551;SDS011;63025;55.472;38.432;2023-08-17T02:42:42;57.63;;;30.40;;
74551;SDS011;63025;55.472;38.432;2023-08-17T02:45:08;50.38;;;28.80;;
74551;SDS011;63025;55.472;38.432;2023-08-17T02:47:35;41.10;;;26.23;;
74551;SDS011;63025;55.472;38.432;2023-08-17T02:50:01;44.50;;;28.00;;
74551;SDS011;63025;55.472;38.432;2023-08-17T02:52:29;52.95;;;30.13;;
74551;SDS011;63025;55.472;38.432;2023-08-17T02:54:55;43.95;;;26.35;;
74551;SDS011;63025;55.472;38.432;2023-08-17T02:57:20;49.90;;;27.60;;
74551;SDS011;63025;55.472;38.432;2023-08-17T02:59:46;51.58;;;29.75;;
74551;SDS011;63025;55.472;38.432;2023-08-17T03:02:12;45.75;;;28.73;;
74551;SDS011;63025;55.472;38.432;2023-08-17T03:04:38;36.72;;;24.95;;
74551;SDS011;63025;55.472;38.432;2023-08-17T03:07:04;50.47;;;28.90;;
74551;SDS011;63025;55.472;38.432;2023-08-17T03:09:30;42.47;;;27.05;;
74551;SDS011;63025;55.472;38.432;2023-08-17T03:11:56;43.35;;;26.63;;
74551;SDS011;63025;55.472;38.432;2023-08-17T03:14:21;35.78;;;24.10;;
74551;SDS011;63025;55.472;38.432;2023-08-17T03:16:47;44.95;;;25.08;;
74551;SDS011;63025;55.472;38.432;2023-08-17T03:19:14;40.70;;;26.13;;
74551;SDS011;63025;55.472;38.432;2023-08-17T03:21:42;33.95;;;22.92;;
74551;SDS011;63025;55.472;38.432;2023-08-17T03:24:09;31.35;;;22.00;;
74551;SDS011;63025;55.472;38.432;2023-08-17T03:26:36;31.85;;;20.92;;
74551;SDS011;63025;55.472;38.432;2023-08-17T03:29:01;29.73;;;19.45;;
74551;SDS011;63025;55.472;38.432;2023-08-17T03:31:27;26.63;;;18.17;;
74551;SDS011;63025;55.472;38.432;2023-08-17T03:33:54;22.85;;;16.48;;
74551;SDS011;63025;55.472;38.432;2023-08-17T03:36:21;27.38;;;16.63;;
74551;SDS011;63025;55.472;38.432;2023-08-17T03:38:48;23.02;;;16.42;;
74551;SDS011;63025;55.472;38.432;2023-08-17T03:41:13;22.35;;;16.42;;
74551;SDS011;63025;55.472;38.432;2023-08-17T03:43:40;23.63;;;16.05;;
74551;SDS011;63025;55.472;38.432;2023-08-17T03:46:05;19.67;;;13.18;;
74551;SDS011;63025;55.472;38.432;2023-08-17T03:48:31;19.35;;;13.75;;
74551;SDS011;63025;55.472;38.432;2023-08-17T03:50:57;20.85;;;14.63;;
74551;SDS011;63025;55.472;38.432;2023-08-17T03:53:23;18.55;;;12.50;;
74551;SDS011;63025;55.472;38.432;2023-08-17T03:55:49;20.05;;;13.52;;
74551;SDS011;63025;55.472;38.432;2023-08-17T03:58:17;18.80;;;11.80;;
74551;SDS011;63025;55.472;38.432;2023-08-17T04:00:49;20.70;;;11.93;;
74551;SDS011;63025;55.472;38.432;2023-08-17T04:03:18;16.73;;;11.45;;
74551;SDS011;63025;55.472;38.432;2023-08-17T04:05:45;16.08;;;10.35;;
74551;SDS011;63025;55.472;38.432;2023-08-17T04:08:10;13.70;;;9.90;;
74551;SDS011;63025;55.472;38.432;2023-08-17T04:10:36;15.95;;;10.45;;
74551;SDS011;63025;55.472;38.432;2023-08-17T04:13:02;15.50;;;9.77;;
74551;SDS011;63025;55.472;38.432;2023-08-17T04:15:28;13.05;;;9.57;;
74551;SDS011;63025;55.472;38.432;2023-08-17T04:17:54;15.65;;;9.77;;
74551;SDS011;63025;55.472;38.432;2023-08-17T04:20:20;11.85;;;8.90;;
74551;SDS011;63025;55.472;38.432;2023-08-17T04:22:48;12.75;;;9.30;;
74551;SDS011;63025;55.472;38.432;2023-08-17T04:25:14;13.40;;;9.68;;
74551;SDS011;63025;55.472;38.432;2023-08-17T04:27:40;13.13;;;8.95;;
74551;SDS011;63025;55.472;38.432;2023-08-17T04:30:06;12.50;;;8.55;;
74551;SDS011;63025;55.472;38.432;2023-08-17T04:32:43;13.38;;;8.27;;
74551;SDS011;63025;55.472;38.432;2023-08-17T04:35:09;15.65;;;8.40;;
74551;SDS011;63025;55.472;38.432;2023-08-17T04:37:35;12.07;;;8.13;;
74551;SDS011;63025;55.472;38.432;2023-08-17T04:40:02;12.60;;;7.53;;
74551;SDS011;63025;55.472;38.432;2023-08-17T04:42:29;11.82;;;7.45;;
74551;SDS011;63025;55.472;38.432;2023-08-17T04:44:55;13.30;;;8.38;;
74551;SDS011;63025;55.472;38.432;2023-08-17T04:47:21;12.18;;;8.95;;
74551;SDS011;63025;55.472;38.432;2023-08-17T04:49:47;11.88;;;8.30;;
74551;SDS011;63025;55.472;38.432;2023-08-17T04:52:13;11.38;;;7.30;;
74551;SDS011;63025;55.472;38.432;2023-08-17T04:54:38;8.82;;;6.78;;
74551;SDS011;63025;55.472;38.432;2023-08-17T04:57:04;11.10;;;6.88;;
74551;SDS011;63025;55.472;38.432;2023-08-17T04:59:31;9.95;;;6.47;;
74551;SDS011;63025;55.472;38.432;2023-08-17T05:01:56;10.35;;;6.95;;
74551;SDS011;63025;55.472;38.432;2023-08-17T05:04:22;9.27;;;7.00;;
74551;SDS011;63025;55.472;38.432;2023-08-17T05:06:48;10.98;;;6.85;;
74551;SDS011;63025;55.472;38.432;2023-08-17T05:09:14;8.70;;;6.43;;
74551;SDS011;63025;55.472;38.432;2023-08-17T05:11:40;10.43;;;6.55;;
74551;SDS011;63025;55.472;38.432;2023-08-17T05:14:06;11.07;;;6.20;;
74551;SDS011;63025;55.472;38.432;2023-08-17T05:16:32;9.45;;;6.57;;
74551;SDS011;63025;55.472;38.432;2023-08-17T05:18:58;11.43;;;6.30;;
74551;SDS011;63025;55.472;38.432;2023-08-17T05:21:26;11.68;;;6.53;;
74551;SDS011;63025;55.472;38.432;2023-08-17T05:23:52;8.02;;;6.10;;
74551;SDS011;63025;55.472;38.432;2023-08-17T05:26:18;11.38;;;5.70;;
74551;SDS011;63025;55.472;38.432;2023-08-17T05:28:43;8.98;;;5.82;;
74551;SDS011;63025;55.472;38.432;2023-08-17T05:31:10;8.00;;;5.07;;
74551;SDS011;63025;55.472;38.432;2023-08-17T05:33:40;9.75;;;5.70;;
74551;SDS011;63025;55.472;38.432;2023-08-17T05:36:07;9.30;;;5.30;;
74551;SDS011;63025;55.472;38.432;2023-08-17T05:38:33;10.05;;;5.78;;
74551;SDS011;63025;55.472;38.432;2023-08-17T05:40:59;7.63;;;4.90;;
74551;SDS011;63025;55.472;38.432;2023-08-17T05:43:25;8.27;;;4.78;;
74551;SDS011;63025;55.472;38.432;2023-08-17T05:45:51;7.80;;;4.90;;
74551;SDS011;63025;55.472;38.432;2023-08-17T05:48:21;9.45;;;5.15;;
74551;SDS011;63025;55.472;38.432;2023-08-17T05:50:47;8.30;;;4.80;;
74551;SDS011;63025;55.472;38.432;2023-08-17T05:53:13;8.13;;;4.72;;
74551;SDS011;63025;55.472;38.432;2023-08-17T05:55:39;7.15;;;4.70;;
74551;SDS011;63025;55.472;38.432;2023-08-17T06:01:03;7.78;;;4.50;;
74551;SDS011;63025;55.472;38.432;2023-08-17T06:03:30;6.72;;;4.80;;
74551;SDS011;63025;55.472;38.432;2023-08-17T06:05:56;6.28;;;4.40;;
74551;SDS011;63025;55.472;38.432;2023-08-17T06:08:22;9.95;;;5.18;;
74551;SDS011;63025;55.472;38.432;2023-08-17T06:10:47;6.75;;;4.32;;
74551;SDS011;63025;55.472;38.432;2023-08-17T06:13:13;7.18;;;4.10;;
74551;SDS011;63025;55.472;38.432;2023-08-17T06:15:39;6.43;;;3.90;;
74551;SDS011;63025;55.472;38.432;2023-08-17T06:18:05;9.27;;;4.60;;
74551;SDS011;63025;55.472;38.432;2023-08-17T06:20:31;6.22;;;4.30;;
74551;SDS011;63025;55.472;38.432;2023-08-17T06:22:57;5.90;;;4.18;;
74551;SDS011;63025;55.472;38.432;2023-08-17T06:25:22;6.43;;;4.35;;
74551;SDS011;63025;55.472;38.432;2023-08-17T06:27:49;7.95;;;4.40;;
74551;SDS011;63025;55.472;38.432;2023-08-17T06:30:15;5.78;;;3.97;;
74551;SDS011;63025;55.472;38.432;2023-08-17T06:32:41;5.43;;;3.90;;
74551;SDS011;63025;55.472;38.432;2023-08-17T06:35:07;8.27;;;4.25;;
74551;SDS011;63025;55.472;38.432;2023-08-17T06:37:33;5.60;;;3.90;;
74551;SDS011;63025;55.472;38.432;2023-08-17T06:39:59;7.90;;;4.20;;
74551;SDS011;63025;55.472;38.432;2023-08-17T06:42:24;7.07;;;3.90;;
74551;SDS011;63025;55.472;38.432;2023-08-17T06:44:50;6.35;;;4.32;;
74551;SDS011;63025;55.472;38.432;2023-08-17T06:47:16;7.18;;;4.13;;
74551;SDS011;63025;55.472;38.432;2023-08-17T06:49:42;6.22;;;3.50;;
74551;SDS011;63025;55.472;38.432;2023-08-17T06:52:08;9.20;;;3.90;;
74551;SDS011;63025;55.472;38.432;2023-08-17T06:54:33;5.60;;;3.63;;
74551;SDS011;63025;55.472;38.432;2023-08-17T06:56:59;6.18;;;3.70;;
74551;SDS011;63025;55.472;38.432;2023-08-17T06:59:25;6.18;;;3.60;;
74551;SDS011;63025;55.472;38.432;2023-08-17T07:01:51;6.68;;;3.95;;
74551;SDS011;63025;55.472;38.432;2023-08-17T07:04:16;5.47;;;3.55;;
74551;SDS011;63025;55.472;38.432;2023-08-17T07:06:42;5.60;;;3.45;;
74551;SDS011;63025;55.472;38.432;2023-08-17T07:09:09;5.75;;;3.53;;
74551;SDS011;63025;55.472;38.432;2023-08-17T07:11:38;4.70;;;3.30;;
74551;SDS011;63025;55.472;38.432;2023-08-17T07:14:04;7.22;;;3.72;;
74551;SDS011;63025;55.472;38.432;2023-08-17T07:16:31;8.43;;;3.10;;
74551;SDS011;63025;55.472;38.432;2023-08-17T07:18:58;9.20;;;3.60;;
74551;SDS011;63025;55.472;38.432;2023-08-17T07:21:24;5.22;;;2.97;;
74551;SDS011;63025;55.472;38.432;2023-08-17T07:23:50;4.78;;;3.03;;
74551;SDS011;63025;55.472;38.432;2023-08-17T07:26:16;6.28;;;2.90;;
74551;SDS011;63025;55.472;38.432;2023-08-17T07:28:44;4.57;;;2.67;;
74551;SDS011;63025;55.472;38.432;2023-08-17T07:31:10;4.70;;;3.20;;
74551;SDS011;63025;55.472;38.432;2023-08-17T07:33:36;5.72;;;3.00;;
74551;SDS011;63025;55.472;38.432;2023-08-17T07:36:02;4.63;;;2.75;;
74551;SDS011;63025;55.472;38.432;2023-08-17T07:38:30;5.88;;;3.10;;
74551;SDS011;63025;55.472;38.432;2023-08-17T07:40:55;7.45;;;3.00;;
74551;SDS011;63025;55.472;38.432;2023-08-17T07:43:21;5.88;;;2.83;;
74551;SDS011;63025;55.472;38.432;2023-08-17T07:45:54;5.57;;;2.88;;
74551;SDS011;63025;55.472;38.432;2023-08-17T07:48:22;4.93;;;3.03;;
74551;SDS011;63025;55.472;38.432;2023-08-17T07:50:51;4.90;;;2.92;;
74551;SDS011;63025;55.472;38.432;2023-08-17T07:53:18;5.22;;;3.00;;
74551;SDS011;63025;55.472;38.432;2023-08-17T07:55:45;5.60;;;2.90;;
74551;SDS011;63025;55.472;38.432;2023-08-17T07:58:11;4.35;;;2.72;;
74551;SDS011;63025;55.472;38.432;2023-08-17T08:00:37;5.97;;;2.92;;
74551;SDS011;63025;55.472;38.432;2023-08-17T08:03:03;5.72;;;3.20;;
74551;SDS011;63025;55.472;38.432;2023-08-17T08:05:29;4.97;;;3.33;;
74551;SDS011;63025;55.472;38.432;2023-08-17T08:07:55;4.05;;;2.97;;
74551;SDS011;63025;55.472;38.432;2023-08-17T08:10:21;5.22;;;2.90;;
74551;SDS011;63025;55.472;38.432;2023-08-17T08:12:47;5.30;;;3.20;;
74551;SDS011;63025;55.472;38.432;2023-08-17T08:15:12;4.43;;;2.85;;
74551;SDS011;63025;55.472;38.432;2023-08-17T08:17:38;4.82;;;2.63;;
74551;SDS011;63025;55.472;38.432;2023-08-17T08:20:04;5.72;;;2.78;;
74551;SDS011;63025;55.472;38.432;2023-08-17T08:22:31;3.78;;;2.63;;
74551;SDS011;63025;55.472;38.432;2023-08-17T08:24:57;5.20;;;2.60;;
74551;SDS011;63025;55.472;38.432;2023-08-17T08:27:23;5.95;;;2.70;;
74551;SDS011;63025;55.472;38.432;2023-08-17T08:29:50;6.22;;;2.50;;
74551;SDS011;63025;55.472;38.432;2023-08-17T08:32:16;4.63;;;2.80;;
74551;SDS011;63025;55.472;38.432;2023-08-17T08:34:42;5.70;;;2.42;;
74551;SDS011;63025;55.472;38.432;2023-08-17T08:37:08;3.63;;;2.55;;
74551;SDS011;63025;55.472;38.432;2023-08-17T08:39:44;3.95;;;2.58;;
74551;SDS011;63025;55.472;38.432;2023-08-17T08:42:14;5.50;;;2.53;;
74551;SDS011;63025;55.472;38.432;2023-08-17T08:44:41;4.28;;;2.33;;
74551;SDS011;63025;55.472;38.432;2023-08-17T08:47:06;6.30;;;2.33;;
74551;SDS011;63025;55.472;38.432;2023-08-17T08:49:33;3.75;;;2.30;;
74551;SDS011;63025;55.472;38.432;2023-08-17T08:52:07;4.40;;;2.00;;
74551;SDS011;63025;55.472;38.432;2023-08-17T08:54:34;4.35;;;2.22;;
74551;SDS011;63025;55.472;38.432;2023-08-17T08:57:03;4.15;;;2.30;;
74551;SDS011;63025;55.472;38.432;2023-08-17T08:59:34;3.22;;;2.05;;
74551;SDS011;63025;55.472;38.432;2023-08-17T09:02:01;5.75;;;2.10;;
74551;SDS011;63025;55.472;38.432;2023-08-17T09:04:28;3.15;;;2.25;;
74551;SDS011;63025;55.472;38.432;2023-08-17T09:06:54;3.83;;;2.30;;
74551;SDS011;63025;55.472;38.432;2023-08-17T09:09:21;4.47;;;2.30;;
74551;SDS011;63025;55.472;38.432;2023-08-17T09:11:48;3.63;;;2.20;;
74551;SDS011;63025;55.472;38.432;2023-08-17T09:14:13;4.07;;;2.22;;
74551;SDS011;63025;55.472;38.432;2023-08-17T09:16:39;4.03;;;2.20;;
74551;SDS011;63025;55.472;38.432;2023-08-17T09:19:05;3.15;;;1.92;;
74551;SDS011;63025;55.472;38.432;2023-08-17T09:21:32;3.55;;;2.15;;
74551;SDS011;63025;55.472;38.432;2023-08-17T09:23:58;4.00;;;2.28;;
74551;SDS011;63025;55.472;38.432;2023-08-17T09:26:24;3.70;;;2.28;;
74551;SDS011;63025;55.472;38.432;2023-08-17T09:28:50;4.28;;;2.20;;
74551;SDS011;63025;55.472;38.432;2023-08-17T09:31:20;3.50;;;1.95;;
74551;SDS011;63025;55.472;38.432;2023-08-17T09:33:52;4.05;;;2.10;;
74551;SDS011;63025;55.472;38.432;2023-08-17T09:36:21;3.67;;;1.85;;
74551;SDS011;63025;55.472;38.432;2023-08-17T09:38:48;2.92;;;2.00;;
74551;SDS011;63025;55.472;38.432;2023-08-17T09:41:15;2.90;;;1.98;;
74551;SDS011;63025;55.472;38.432;2023-08-17T09:43:42;3.92;;;2.20;;
74551;SDS011;63025;55.472;38.432;2023-08-17T09:46:08;3.60;;;2.28;;
74551;SDS011;63025;55.472;38.432;2023-08-17T09:48:34;3.67;;;2.08;;
74551;SDS011;63025;55.472;38.432;2023-08-17T09:51:01;4.97;;;2.47;;
74551;SDS011;63025;55.472;38.432;2023-08-17T09:53:27;4.35;;;2.20;;
74551;SDS011;63025;55.472;38.432;2023-08-17T09:55:53;4.57;;;2.78;;
74551;SDS011;63025;55.472;38.432;2023-08-17T09:58:22;4.43;;;2.20;;
74551;SDS011;63025;55.472;38.432;2023-08-17T10:00:49;15.52;;;2.72;;
74551;SDS011;63025;55.472;38.432;2023-08-17T10:03:16;4.43;;;2.17;;
74551;SDS011;63025;55.472;38.432;2023-08-17T10:05:44;3.70;;;2.17;;
74551;SDS011;63025;55.472;38.432;2023-08-17T10:08:14;5.00;;;2.40;;
74551;SDS011;63025;55.472;38.432;2023-08-17T10:10:46;3.00;;;1.98;;
74551;SDS011;63025;55.472;38.432;2023-08-17T10:13:14;3.50;;;1.92;;
74551;SDS011;63025;55.472;38.432;2023-08-17T10:18:29;4.63;;;2.43;;
74551;SDS011;63025;55.472;38.432;2023-08-17T10:21:05;4.18;;;2.47;;
74551;SDS011;63025;55.472;38.432;2023-08-17T10:23:35;5.63;;;2.70;;
74551;SDS011;63025;55.472;38.432;2023-08-17T10:26:03;4.07;;;2.10;;
74551;SDS011;63025;55.472;38.432;2023-08-17T10:28:30;2.97;;;2.08;;
74551;SDS011;63025;55.472;38.432;2023-08-17T10:30:57;2.88;;;2.00;;
74551;SDS011;63025;55.472;38.432;2023-08-17T10:33:23;4.40;;;2.60;;
74551;SDS011;63025;55.472;38.432;2023-08-17T10:35:51;4.78;;;2.30;;
74551;SDS011;63025;55.472;38.432;2023-08-17T10:38:17;5.45;;;2.15;;
74551;SDS011;63025;55.472;38.432;2023-08-17T10:40:43;3.90;;;2.20;;
74551;SDS011;63025;55.472;38.432;2023-08-17T10:43:09;4.53;;;2.10;;
74551;SDS011;63025;55.472;38.432;2023-08-17T10:45:37;3.53;;;2.10;;
74551;SDS011;63025;55.472;38.432;2023-08-17T10:50:35;6.10;;;4.80;;
74551;SDS011;63025;55.472;38.432;2023-08-17T10:53:03;5.40;;;3.65;;
74551;SDS011;63025;55.472;38.432;2023-08-17T10:55:40;4.80;;;2.47;;
74551;SDS011;63025;55.472;38.432;2023-08-17T10:58:10;3.55;;;2.28;;
74551;SDS011;63025;55.472;38.432;2023-08-17T11:00:38;3.58;;;2.03;;
74551;SDS011;63025;55.472;38.432;2023-08-17T11:03:06;3.95;;;2.47;;
74551;SDS011;63025;55.472;38.432;2023-08-17T11:08:06;4.20;;;2.40;;
74551;SDS011;63025;55.472;38.432;2023-08-17T11:10:35;3.35;;;2.40;;
74551;SDS011;63025;55.472;38.432;2023-08-17T11:13:00;3.33;;;2.13;;
74551;SDS011;63025;55.472;38.432;2023-08-17T11:15:37;3.40;;;2.38;;
74551;SDS011;63025;55.472;38.432;2023-08-17T11:18:11;3.97;;;2.10;;
74551;SDS011;63025;55.472;38.432;2023-08-17T11:20:41;3.83;;;2.13;;
74551;SDS011;63025;55.472;38.432;2023-08-17T11:23:08;5.22;;;2.17;;
74551;SDS011;63025;55.472;38.432;2023-08-17T11:25:34;5.25;;;2.20;;
74551;SDS011;63025;55.472;38.432;2023-08-17T11:28:02;3.13;;;2.00;;
74551;SDS011;63025;55.472;38.432;2023-08-17T11:30:28;2.80;;;2.13;;
74551;SDS011;63025;55.472;38.432;2023-08-17T11:32:55;4.45;;;1.98;;
74551;SDS011;63025;55.472;38.432;2023-08-17T11:35:22;3.47;;;2.10;;
74551;SDS011;63025;55.472;38.432;2023-08-17T11:37:48;4.22;;;2.45;;
74551;SDS011;63025;55.472;38.432;2023-08-17T11:40:15;3.30;;;2.10;;
74551;SDS011;63025;55.472;38.432;2023-08-17T11:42:41;4.97;;;2.00;;
74551;SDS011;63025;55.472;38.432;2023-08-17T11:45:08;3.90;;;2.28;;
74551;SDS011;63025;55.472;38.432;2023-08-17T11:47:40;3.08;;;2.33;;
74551;SDS011;63025;55.472;38.432;2023-08-17T11:50:08;3.13;;;2.20;;
74551;SDS011;63025;55.472;38.432;2023-08-17T11:52:35;3.55;;;2.15;;
74551;SDS011;63025;55.472;38.432;2023-08-17T11:55:02;3.63;;;2.53;;
74551;SDS011;63025;55.472;38.432;2023-08-17T11:57:31;3.40;;;2.40;;
74551;SDS011;63025;55.472;38.432;2023-08-17T11:59:57;2.92;;;2.03;;
74551;SDS011;63025;55.472;38.432;2023-08-17T12:02:25;3.05;;;2.22;;
74551;SDS011;63025;55.472;38.432;2023-08-17T12:04:52;2.70;;;2.00;;
74551;SDS011;63025;55.472;38.432;2023-08-17T12:07:18;3.65;;;2.20;;
74551;SDS011;63025;55.472;38.432;2023-08-17T12:09:45;3.45;;;2.40;;
74551;SDS011;63025;55.472;38.432;2023-08-17T12:12:11;4.13;;;2.10;;
74551;SDS011;63025;55.472;38.432;2023-08-17T12:14:41;4.47;;;2.40;;
74551;SDS011;63025;55.472;38.432;2023-08-17T12:17:07;4.15;;;2.30;;
74551;SDS011;63025;55.472;38.432;2023-08-17T12:19:33;3.67;;;2.42;;
74551;SDS011;63025;55.472;38.432;2023-08-17T12:21:59;3.72;;;2.00;;
74551;SDS011;63025;55.472;38.432;2023-08-17T12:24:25;3.92;;;2.20;;
74551;SDS011;63025;55.472;38.432;2023-08-17T12:26:51;3.08;;;2.10;;
74551;SDS011;63025;55.472;38.432;2023-08-17T12:29:16;4.82;;;2.13;;
74551;SDS011;63025;55.472;38.432;2023-08-17T12:31:42;3.92;;;2.10;;
74551;SDS011;63025;55.472;38.432;2023-08-17T12:34:08;3.30;;;2.15;;
74551;SDS011;63025;55.472;38.432;2023-08-17T12:36:34;4.65;;;2.33;;
74551;SDS011;63025;55.472;38.432;2023-08-17T12:39:03;3.70;;;2.05;;
74551;SDS011;63025;55.472;38.432;2023-08-17T12:41:30;4.35;;;2.40;;
74551;SDS011;63025;55.472;38.432;2023-08-17T12:43:55;3.45;;;2.25;;
74551;SDS011;63025;55.472;38.432;2023-08-17T12:46:24;4.25;;;2.33;;
74551;SDS011;63025;55.472;38.432;2023-08-17T12:48:50;4.00;;;2.13;;
74551;SDS011;63025;55.472;38.432;2023-08-17T12:51:16;4.57;;;2.60;;
74551;SDS011;63025;55.472;38.432;2023-08-17T12:53:42;3.88;;;2.30;;
74551;SDS011;63025;55.472;38.432;2023-08-17T12:56:08;2.95;;;2.38;;
74551;SDS011;63025;55.472;38.432;2023-08-17T12:58:34;4.78;;;2.30;;
74551;SDS011;63025;55.472;38.432;2023-08-17T13:01:00;3.53;;;2.38;;
74551;SDS011;63025;55.472;38.432;2023-08-17T13:03:25;3.38;;;2.30;;
74551;SDS011;63025;55.472;38.432;2023-08-17T13:05:51;3.70;;;2.22;;
74551;SDS011;63025;55.472;38.432;2023-08-17T13:08:17;3.80;;;2.05;;
74551;SDS011;63025;55.472;38.432;2023-08-17T13:10:43;3.58;;;2.40;;
74551;SDS011;63025;55.472;38.432;2023-08-17T13:13:08;3.28;;;2.28;;
74551;SDS011;63025;55.472;38.432;2023-08-17T13:15:35;2.92;;;2.20;;
74551;SDS011;63025;55.472;38.432;2023-08-17T13:18:01;4.07;;;2.30;;
74551;SDS011;63025;55.472;38.432;2023-08-17T13:20:28;4.03;;;2.33;;
74551;SDS011;63025;55.472;38.432;2023-08-17T13:22:54;3.00;;;2.33;;
74551;SDS011;63025;55.472;38.432;2023-08-17T13:25:19;3.05;;;2.10;;
74551;SDS011;63025;55.472;38.432;2023-08-17T13:27:45;4.72;;;2.55;;
74551;SDS011;63025;55.472;38.432;2023-08-17T13:30:11;3.65;;;2.58;;
74551;SDS011;63025;55.472;38.432;2023-08-17T13:32:37;3.90;;;2.30;;
74551;SDS011;63025;55.472;38.432;2023-08-17T13:35:03;3.80;;;2.45;;
74551;SDS011;63025;55.472;38.432;2023-08-17T13:37:30;3.05;;;2.10;;
74551;SDS011;63025;55.472;38.432;2023-08-17T13:39:57;9.10;;;5.05;;
74551;SDS011;63025;55.472;38.432;2023-08-17T13:42:24;7.45;;;4.80;;
74551;SDS011;63025;55.472;38.432;2023-08-17T13:44:50;5.93;;;3.30;;
74551;SDS011;63025;55.472;38.432;2023-08-17T13:47:16;5.70;;;2.90;;
74551;SDS011;63025;55.472;38.432;2023-08-17T13:49:42;4.82;;;3.00;;
74551;SDS011;63025;55.472;38.432;2023-08-17T13:52:08;5.32;;;3.30;;
74551;SDS011;63025;55.472;38.432;2023-08-17T13:54:33;4.13;;;2.50;;
74551;SDS011;63025;55.472;38.432;2023-08-17T13:57:00;6.55;;;3.80;;
74551;SDS011;63025;55.472;38.432;2023-08-17T13:59:29;5.65;;;3.90;;
74551;SDS011;63025;55.472;38.432;2023-08-17T14:01:55;7.88;;;5.30;;
74551;SDS011;63025;55.472;38.432;2023-08-17T14:04:21;5.47;;;3.70;;
74551;SDS011;63025;55.472;38.432;2023-08-17T14:06:47;6.63;;;5.00;;
74551;SDS011;63025;55.472;38.432;2023-08-17T14:09:13;5.20;;;4.15;;
74551;SDS011;63025;55.472;38.432;2023-08-17T14:11:39;5.03;;;2.78;;
74551;SDS011;63025;55.472;38.432;2023-08-17T14:14:05;4.95;;;3.08;;
74551;SDS011;63025;55.472;38.432;2023-08-17T14:16:31;5.88;;;3.28;;
74551;SDS011;63025;55.472;38.432;2023-08-17T14:18:56;5.97;;;3.80;;
74551;SDS011;63025;55.472;38.432;2023-08-17T14:21:22;5.32;;;3.08;;
74551;SDS011;63025;55.472;38.432;2023-08-17T14:23:48;5.38;;;3.00;;
74551;SDS011;63025;55.472;38.432;2023-08-17T14:26:14;5.32;;;3.20;;
74551;SDS011;63025;55.472;38.432;2023-08-17T14:28:40;6.32;;;4.38;;
74551;SDS011;63025;55.472;38.432;2023-08-17T14:31:06;6.75;;;4.28;;
74551;SDS011;63025;55.472;38.432;2023-08-17T14:33:32;5.95;;;4.63;;
74551;SDS011;63025;55.472;38.432;2023-08-17T14:35:57;5.10;;;3.47;;